sensor_id;sensor_type;location;lat;lon;timestamp;P1;durP1;ratioP1;P2;durP2;ratioP2
76595;SDS011;65485;45.990;18.670;2023-06-14T04:02:46;7.28;;;4.50;;
76595;SDS011;65485;45.990;18.670;2023-06-14T04:05:49;6.05;;;4.25;;
76595;SDS011;65485;45.990;18.670;2023-06-14T04:08:53;6.22;;;4.78;;
76595;SDS011;65485;45.990;18.670;2023-06-14T04:11:56;5.20;;;4.00;;
76595;SDS011;65485;45.990;18.670;2023-06-14T04:14:59;6.00;;;4.33;;
76595;SDS011;65485;45.990;18.670;2023-06-14T04:18:21;6.85;;;4.40;;
76595;SDS011;65485;45.990;18.670;2023-06-14T04:21:26;4.90;;;4.22;;
76595;SDS011;65485;45.990;18.670;2023-06-14T04:24:33;4.97;;;4.50;;
76595;SDS011;65485;45.990;18.670;2023-06-14T04:27:37;6.10;;;3.50;;
76595;SDS011;65485;45.990;18.670;2023-06-14T04:30:41;3.30;;;2.87;;
76595;SDS011;65485;45.990;18.670;2023-06-14T04:33:44;5.72;;;2.80;;
76595;SDS011;65485;45.990;18.670;2023-06-14T04:36:52;4.18;;;2.70;;
76595;SDS011;65485;45.990;18.670;2023-06-14T04:40:03;4.82;;;2.92;;
76595;SDS011;65485;45.990;18.670;2023-06-14T04:43:14;2.87;;;2.67;;
76595;SDS011;65485;45.990;18.670;2023-06-14T04:46:27;2.57;;;2.37;;
76595;SDS011;65485;45.990;18.670;2023-06-14T04:49:31;3.55;;;2.58;;
76595;SDS011;65485;45.990;18.670;2023-06-14T04:52:35;2.72;;;2.53;;
76595;SDS011;65485;45.990;18.670;2023-06-14T04:55:39;3.08;;;2.75;;
76595;SDS011;65485;45.990;18.670;2023-06-14T04:58:43;2.95;;;2.65;;
76595;SDS011;65485;45.990;18.670;2023-06-14T05:01:46;2.63;;;2.43;;
76595;SDS011;65485;45.990;18.670;2023-06-14T05:04:52;3.17;;;2.50;;
76595;SDS011;65485;45.990;18.670;2023-06-14T05:07:55;3.42;;;3.13;;
76595;SDS011;65485;45.990;18.670;2023-06-14T05:10:58;3.53;;;2.80;;
76595;SDS011;65485;45.990;18.670;2023-06-14T05:14:01;3.17;;;2.80;;
76595;SDS011;65485;45.990;18.670;2023-06-14T05:17:04;3.03;;;2.73;;
76595;SDS011;65485;45.990;18.670;2023-06-14T05:20:08;2.90;;;2.70;;
76595;SDS011;65485;45.990;18.670;2023-06-14T05:23:12;3.00;;;2.80;;
76595;SDS011;65485;45.990;18.670;2023-06-14T05:26:18;3.95;;;2.97;;
76595;SDS011;65485;45.990;18.670;2023-06-14T05:29:21;3.30;;;3.00;;
76595;SDS011;65485;45.990;18.670;2023-06-14T05:32:24;3.63;;;2.80;;
76595;SDS011;65485;45.990;18.670;2023-06-14T05:35:27;2.72;;;2.53;;
76595;SDS011;65485;45.990;18.670;2023-06-14T05:38:30;2.58;;;2.47;;
76595;SDS011;65485;45.990;18.670;2023-06-14T05:41:33;3.42;;;3.13;;
76595;SDS011;65485;45.990;18.670;2023-06-14T05:44:37;2.95;;;2.72;;
76595;SDS011;65485;45.990;18.670;2023-06-14T05:47:41;3.30;;;3.00;;
76595;SDS011;65485;45.990;18.670;2023-06-14T05:50:44;3.05;;;2.60;;
76595;SDS011;65485;45.990;18.670;2023-06-14T05:53:47;3.42;;;3.13;;
76595;SDS011;65485;45.990;18.670;2023-06-14T05:56:54;3.00;;;2.80;;
76595;SDS011;65485;45.990;18.670;2023-06-14T05:59:57;2.95;;;2.75;;
76595;SDS011;65485;45.990;18.670;2023-06-14T06:02:59;2.60;;;2.40;;
76595;SDS011;65485;45.990;18.670;2023-06-14T06:06:03;2.83;;;2.58;;
76595;SDS011;65485;45.990;18.670;2023-06-14T06:09:06;2.88;;;2.67;;
76595;SDS011;65485;45.990;18.670;2023-06-14T06:12:09;2.88;;;2.67;;
76595;SDS011;65485;45.990;18.670;2023-06-14T06:15:12;3.95;;;2.75;;
76595;SDS011;65485;45.990;18.670;2023-06-14T06:18:21;2.60;;;2.40;;
76595;SDS011;65485;45.990;18.670;2023-06-14T06:21:24;2.53;;;2.33;;
76595;SDS011;65485;45.990;18.670;2023-06-14T06:24:27;3.40;;;2.50;;
76595;SDS011;65485;45.990;18.670;2023-06-14T06:27:31;2.65;;;2.55;;
76595;SDS011;65485;45.990;18.670;2023-06-14T06:30:46;3.40;;;2.78;;
76595;SDS011;65485;45.990;18.670;2023-06-14T06:34:23;2.93;;;2.73;;
76595;SDS011;65485;45.990;18.670;2023-06-14T06:37:26;2.75;;;2.55;;
76595;SDS011;65485;45.990;18.670;2023-06-14T06:40:29;3.20;;;2.90;;
76595;SDS011;65485;45.990;18.670;2023-06-14T06:43:32;2.90;;;2.70;;
76595;SDS011;65485;45.990;18.670;2023-06-14T06:46:38;2.97;;;2.78;;
76595;SDS011;65485;45.990;18.670;2023-06-14T06:50:08;2.70;;;2.50;;
76595;SDS011;65485;45.990;18.670;2023-06-14T06:53:16;3.10;;;2.90;;
76595;SDS011;65485;45.990;18.670;2023-06-14T06:57:00;3.05;;;2.53;;
76595;SDS011;65485;45.990;18.670;2023-06-14T07:00:07;2.85;;;2.65;;
76595;SDS011;65485;45.990;18.670;2023-06-14T07:03:15;3.20;;;3.00;;
76595;SDS011;65485;45.990;18.670;2023-06-14T07:06:21;3.80;;;2.77;;
76595;SDS011;65485;45.990;18.670;2023-06-14T07:09:24;2.42;;;2.22;;
76595;SDS011;65485;45.990;18.670;2023-06-14T07:12:27;2.97;;;2.70;;
76595;SDS011;65485;45.990;18.670;2023-06-14T07:15:29;3.15;;;2.90;;
76595;SDS011;65485;45.990;18.670;2023-06-14T07:18:32;2.85;;;2.70;;
76595;SDS011;65485;45.990;18.670;2023-06-14T07:21:35;2.67;;;2.57;;
76595;SDS011;65485;45.990;18.670;2023-06-14T07:24:39;2.60;;;2.50;;
76595;SDS011;65485;45.990;18.670;2023-06-14T07:27:44;2.70;;;2.50;;
76595;SDS011;65485;45.990;18.670;2023-06-14T07:30:48;2.60;;;2.45;;
76595;SDS011;65485;45.990;18.670;2023-06-14T07:33:51;2.60;;;2.50;;
76595;SDS011;65485;45.990;18.670;2023-06-14T07:36:55;3.03;;;2.80;;
76595;SDS011;65485;45.990;18.670;2023-06-14T07:40:00;2.50;;;2.40;;
76595;SDS011;65485;45.990;18.670;2023-06-14T07:43:05;2.47;;;2.38;;
76595;SDS011;65485;45.990;18.670;2023-06-14T07:46:08;2.63;;;2.53;;
76595;SDS011;65485;45.990;18.670;2023-06-14T07:49:15;2.63;;;2.53;;
76595;SDS011;65485;45.990;18.670;2023-06-14T07:52:19;2.60;;;2.40;;
76595;SDS011;65485;45.990;18.670;2023-06-14T07:56:30;2.40;;;2.30;;
76595;SDS011;65485;45.990;18.670;2023-06-14T07:59:34;2.85;;;2.65;;
76595;SDS011;65485;45.990;18.670;2023-06-14T08:02:41;3.15;;;2.92;;
76595;SDS011;65485;45.990;18.670;2023-06-14T08:05:44;2.72;;;2.53;;
76595;SDS011;65485;45.990;18.670;2023-06-14T08:08:47;2.70;;;2.50;;
76595;SDS011;65485;45.990;18.670;2023-06-14T08:11:50;2.63;;;2.42;;
76595;SDS011;65485;45.990;18.670;2023-06-14T08:14:53;2.65;;;2.30;;
76595;SDS011;65485;45.990;18.670;2023-06-14T08:18:15;2.88;;;2.67;;
76595;SDS011;65485;45.990;18.670;2023-06-14T08:21:17;3.10;;;2.90;;
76595;SDS011;65485;45.990;18.670;2023-06-14T08:24:21;3.23;;;2.57;;
76595;SDS011;65485;45.990;18.670;2023-06-14T08:28:11;3.15;;;2.17;;
76595;SDS011;65485;45.990;18.670;2023-06-14T08:31:36;2.50;;;2.30;;
76595;SDS011;65485;45.990;18.670;2023-06-14T08:35:03;2.50;;;2.40;;
76595;SDS011;65485;45.990;18.670;2023-06-14T08:38:18;2.47;;;2.38;;
76595;SDS011;65485;45.990;18.670;2023-06-14T08:41:24;2.30;;;2.20;;
76595;SDS011;65485;45.990;18.670;2023-06-14T08:44:27;2.85;;;2.60;;
76595;SDS011;65485;45.990;18.670;2023-06-14T08:47:30;2.80;;;2.60;;
76595;SDS011;65485;45.990;18.670;2023-06-14T08:50:46;2.53;;;2.42;;
76595;SDS011;65485;45.990;18.670;2023-06-14T08:53:53;3.38;;;3.08;;
76595;SDS011;65485;45.990;18.670;2023-06-14T08:57:01;2.97;;;2.77;;
76595;SDS011;65485;45.990;18.670;2023-06-14T09:00:07;2.50;;;2.40;;
76595;SDS011;65485;45.990;18.670;2023-06-14T09:03:18;2.58;;;2.47;;
76595;SDS011;65485;45.990;18.670;2023-06-14T09:06:32;3.00;;;2.80;;
76595;SDS011;65485;45.990;18.670;2023-06-14T09:09:41;2.75;;;2.60;;
76595;SDS011;65485;45.990;18.670;2023-06-14T09:13:09;2.97;;;2.70;;
76595;SDS011;65485;45.990;18.670;2023-06-14T09:16:12;2.70;;;2.50;;
76595;SDS011;65485;45.990;18.670;2023-06-14T09:19:21;2.53;;;2.42;;
76595;SDS011;65485;45.990;18.670;2023-06-14T09:22:25;2.67;;;2.50;;
76595;SDS011;65485;45.990;18.670;2023-06-14T09:25:28;2.60;;;2.50;;
76595;SDS011;65485;45.990;18.670;2023-06-14T09:28:46;2.87;;;2.67;;
76595;SDS011;65485;45.990;18.670;2023-06-14T09:32:08;2.45;;;2.35;;
76595;SDS011;65485;45.990;18.670;2023-06-14T09:35:54;2.90;;;2.70;;
76595;SDS011;65485;45.990;18.670;2023-06-14T09:42:00;2.40;;;2.30;;
76595;SDS011;65485;45.990;18.670;2023-06-14T09:45:03;3.03;;;2.83;;
76595;SDS011;65485;45.990;18.670;2023-06-14T09:48:15;2.88;;;2.75;;
76595;SDS011;65485;45.990;18.670;2023-06-14T09:51:42;2.53;;;2.42;;
76595;SDS011;65485;45.990;18.670;2023-06-14T09:54:58;3.03;;;2.85;;
76595;SDS011;65485;45.990;18.670;2023-06-14T09:58:03;2.70;;;2.60;;
76595;SDS011;65485;45.990;18.670;2023-06-14T10:01:13;2.83;;;2.63;;
76595;SDS011;65485;45.990;18.670;2023-06-14T10:04:22;3.28;;;2.90;;
76595;SDS011;65485;45.990;18.670;2023-06-14T10:07:27;3.00;;;2.90;;
76595;SDS011;65485;45.990;18.670;2023-06-14T10:10:32;2.72;;;2.60;;
76595;SDS011;65485;45.990;18.670;2023-06-14T10:13:35;2.95;;;2.80;;
76595;SDS011;65485;45.990;18.670;2023-06-14T10:16:41;2.90;;;2.80;;
76595;SDS011;65485;45.990;18.670;2023-06-14T10:19:48;2.70;;;2.60;;
76595;SDS011;65485;45.990;18.670;2023-06-14T10:23:02;2.60;;;2.40;;
76595;SDS011;65485;45.990;18.670;2023-06-14T10:26:17;2.88;;;2.67;;
76595;SDS011;65485;45.990;18.670;2023-06-14T10:29:22;2.85;;;2.65;;
76595;SDS011;65485;45.990;18.670;2023-06-14T10:32:25;3.60;;;2.93;;
76595;SDS011;65485;45.990;18.670;2023-06-14T10:35:30;2.17;;;2.08;;
76595;SDS011;65485;45.990;18.670;2023-06-14T10:38:33;2.53;;;2.33;;
76595;SDS011;65485;45.990;18.670;2023-06-14T10:41:38;2.10;;;2.00;;
76595;SDS011;65485;45.990;18.670;2023-06-14T10:47:45;2.37;;;2.27;;
76595;SDS011;65485;45.990;18.670;2023-06-14T10:50:59;2.15;;;2.05;;
76595;SDS011;65485;45.990;18.670;2023-06-14T10:54:03;1.70;;;1.60;;
76595;SDS011;65485;45.990;18.670;2023-06-14T10:57:06;2.55;;;2.10;;
76595;SDS011;65485;45.990;18.670;2023-06-14T11:00:10;1.75;;;1.65;;
76595;SDS011;65485;45.990;18.670;2023-06-14T11:06:54;3.03;;;2.20;;
76595;SDS011;65485;45.990;18.670;2023-06-14T11:13:48;1.88;;;1.77;;
76595;SDS011;65485;45.990;18.670;2023-06-14T11:16:50;2.00;;;1.80;;
76595;SDS011;65485;45.990;18.670;2023-06-14T11:20:12;2.17;;;2.00;;
76595;SDS011;65485;45.990;18.670;2023-06-14T11:23:22;1.90;;;1.80;;
76595;SDS011;65485;45.990;18.670;2023-06-14T11:26:29;2.05;;;1.88;;
76595;SDS011;65485;45.990;18.670;2023-06-14T11:29:33;1.70;;;1.60;;
76595;SDS011;65485;45.990;18.670;2023-06-14T11:32:38;2.22;;;2.05;;
76595;SDS011;65485;45.990;18.670;2023-06-14T11:35:41;2.17;;;1.97;;
76595;SDS011;65485;45.990;18.670;2023-06-14T11:38:44;2.40;;;1.70;;
76595;SDS011;65485;45.990;18.670;2023-06-14T11:41:47;2.00;;;1.80;;
76595;SDS011;65485;45.990;18.670;2023-06-14T11:44:50;1.92;;;1.60;;
76595;SDS011;65485;45.990;18.670;2023-06-14T11:47:54;2.72;;;1.90;;
76595;SDS011;65485;45.990;18.670;2023-06-14T11:50:59;2.10;;;1.90;;
76595;SDS011;65485;45.990;18.670;2023-06-14T11:54:02;2.28;;;1.75;;
76595;SDS011;65485;45.990;18.670;2023-06-14T11:57:05;1.83;;;1.73;;
76595;SDS011;65485;45.990;18.670;2023-06-14T12:00:09;2.05;;;1.75;;
76595;SDS011;65485;45.990;18.670;2023-06-14T12:03:14;1.77;;;1.67;;
76595;SDS011;65485;45.990;18.670;2023-06-14T12:06:24;1.90;;;1.80;;
76595;SDS011;65485;45.990;18.670;2023-06-14T12:09:30;2.47;;;1.90;;
76595;SDS011;65485;45.990;18.670;2023-06-14T12:12:37;2.33;;;1.90;;
76595;SDS011;65485;45.990;18.670;2023-06-14T12:15:40;1.70;;;1.60;;
76595;SDS011;65485;45.990;18.670;2023-06-14T12:18:43;2.85;;;2.30;;
76595;SDS011;65485;45.990;18.670;2023-06-14T12:21:46;1.97;;;1.50;;
76595;SDS011;65485;45.990;18.670;2023-06-14T12:24:53;1.63;;;1.52;;
76595;SDS011;65485;45.990;18.670;2023-06-14T12:27:56;1.90;;;1.70;;
76595;SDS011;65485;45.990;18.670;2023-06-14T12:30:59;2.83;;;1.83;;
76595;SDS011;65485;45.990;18.670;2023-06-14T12:34:02;1.60;;;1.50;;
76595;SDS011;65485;45.990;18.670;2023-06-14T12:37:05;1.77;;;1.67;;
76595;SDS011;65485;45.990;18.670;2023-06-14T12:40:08;1.80;;;1.70;;
76595;SDS011;65485;45.990;18.670;2023-06-14T12:43:13;2.05;;;1.80;;
76595;SDS011;65485;45.990;18.670;2023-06-14T12:46:18;2.05;;;1.50;;
76595;SDS011;65485;45.990;18.670;2023-06-14T12:49:20;1.77;;;1.65;;
76595;SDS011;65485;45.990;18.670;2023-06-14T12:52:23;2.43;;;1.80;;
76595;SDS011;65485;45.990;18.670;2023-06-14T12:55:26;1.80;;;1.60;;
76595;SDS011;65485;45.990;18.670;2023-06-14T12:58:28;2.63;;;1.90;;
76595;SDS011;65485;45.990;18.670;2023-06-14T13:01:31;2.20;;;2.00;;
76595;SDS011;65485;45.990;18.670;2023-06-14T13:04:34;1.80;;;1.70;;
76595;SDS011;65485;45.990;18.670;2023-06-14T13:07:36;2.10;;;1.90;;
76595;SDS011;65485;45.990;18.670;2023-06-14T13:10:39;1.73;;;1.63;;
76595;SDS011;65485;45.990;18.670;2023-06-14T13:13:42;1.55;;;1.45;;
76595;SDS011;65485;45.990;18.670;2023-06-14T13:16:45;2.15;;;1.88;;
76595;SDS011;65485;45.990;18.670;2023-06-14T13:19:47;2.03;;;1.83;;
76595;SDS011;65485;45.990;18.670;2023-06-14T13:22:50;1.80;;;1.70;;
76595;SDS011;65485;45.990;18.670;2023-06-14T13:25:53;2.30;;;2.10;;
76595;SDS011;65485;45.990;18.670;2023-06-14T13:28:55;2.08;;;1.70;;
76595;SDS011;65485;45.990;18.670;2023-06-14T13:31:58;3.03;;;1.83;;
76595;SDS011;65485;45.990;18.670;2023-06-14T13:35:01;2.03;;;1.92;;
76595;SDS011;65485;45.990;18.670;2023-06-14T13:38:04;1.77;;;1.67;;
76595;SDS011;65485;45.990;18.670;2023-06-14T13:41:07;2.65;;;1.70;;
76595;SDS011;65485;45.990;18.670;2023-06-14T13:44:09;1.70;;;1.60;;
76595;SDS011;65485;45.990;18.670;2023-06-14T13:47:18;1.70;;;1.60;;
76595;SDS011;65485;45.990;18.670;2023-06-14T13:50:20;1.70;;;1.60;;
76595;SDS011;65485;45.990;18.670;2023-06-14T13:53:24;2.97;;;1.83;;
76595;SDS011;65485;45.990;18.670;2023-06-14T13:56:26;2.47;;;2.22;;
76595;SDS011;65485;45.990;18.670;2023-06-14T13:59:29;2.22;;;1.90;;
76595;SDS011;65485;45.990;18.670;2023-06-14T14:02:32;2.42;;;1.60;;
76595;SDS011;65485;45.990;18.670;2023-06-14T14:05:34;2.78;;;2.00;;
76595;SDS011;65485;45.990;18.670;2023-06-14T14:08:37;2.10;;;1.90;;
76595;SDS011;65485;45.990;18.670;2023-06-14T14:11:41;1.50;;;1.40;;
76595;SDS011;65485;45.990;18.670;2023-06-14T14:14:44;2.60;;;1.88;;
76595;SDS011;65485;45.990;18.670;2023-06-14T14:17:48;1.92;;;1.83;;
76595;SDS011;65485;45.990;18.670;2023-06-14T14:20:51;2.10;;;2.00;;
76595;SDS011;65485;45.990;18.670;2023-06-14T14:23:54;2.33;;;2.13;;
76595;SDS011;65485;45.990;18.670;2023-06-14T14:26:57;2.22;;;2.03;;
76595;SDS011;65485;45.990;18.670;2023-06-14T14:30:03;1.73;;;1.60;;
76595;SDS011;65485;45.990;18.670;2023-06-14T14:33:09;1.60;;;1.48;;
76595;SDS011;65485;45.990;18.670;2023-06-14T14:36:13;3.22;;;1.65;;
76595;SDS011;65485;45.990;18.670;2023-06-14T14:39:16;1.90;;;1.47;;
76595;SDS011;65485;45.990;18.670;2023-06-14T14:42:19;2.05;;;1.83;;
76595;SDS011;65485;45.990;18.670;2023-06-14T14:45:22;2.00;;;1.80;;
76595;SDS011;65485;45.990;18.670;2023-06-14T14:48:24;1.85;;;1.73;;
76595;SDS011;65485;45.990;18.670;2023-06-14T14:51:27;3.10;;;1.90;;
76595;SDS011;65485;45.990;18.670;2023-06-14T14:54:30;1.73;;;1.57;;
76595;SDS011;65485;45.990;18.670;2023-06-14T14:57:32;2.58;;;1.90;;
76595;SDS011;65485;45.990;18.670;2023-06-14T15:00:35;2.05;;;1.85;;
76595;SDS011;65485;45.990;18.670;2023-06-14T15:03:38;1.80;;;1.70;;
76595;SDS011;65485;45.990;18.670;2023-06-14T15:06:59;1.83;;;1.63;;
76595;SDS011;65485;45.990;18.670;2023-06-14T15:10:02;1.90;;;1.63;;
76595;SDS011;65485;45.990;18.670;2023-06-14T15:13:04;1.83;;;1.73;;
76595;SDS011;65485;45.990;18.670;2023-06-14T15:16:07;2.20;;;2.00;;
76595;SDS011;65485;45.990;18.670;2023-06-14T15:19:10;1.80;;;1.70;;
76595;SDS011;65485;45.990;18.670;2023-06-14T15:22:13;2.03;;;1.80;;
76595;SDS011;65485;45.990;18.670;2023-06-14T15:25:17;1.83;;;1.60;;
76595;SDS011;65485;45.990;18.670;2023-06-14T15:28:20;2.42;;;1.90;;
76595;SDS011;65485;45.990;18.670;2023-06-14T15:31:23;3.00;;;2.00;;
76595;SDS011;65485;45.990;18.670;2023-06-14T15:34:30;2.13;;;1.83;;
76595;SDS011;65485;45.990;18.670;2023-06-14T15:37:33;2.05;;;1.92;;
76595;SDS011;65485;45.990;18.670;2023-06-14T15:40:35;1.93;;;1.60;;
76595;SDS011;65485;45.990;18.670;2023-06-14T15:43:38;2.65;;;1.92;;
76595;SDS011;65485;45.990;18.670;2023-06-14T15:46:41;2.35;;;2.03;;
76595;SDS011;65485;45.990;18.670;2023-06-14T15:49:43;2.17;;;1.98;;
76595;SDS011;65485;45.990;18.670;2023-06-14T15:52:46;1.70;;;1.60;;
76595;SDS011;65485;45.990;18.670;2023-06-14T15:55:51;1.80;;;1.70;;
76595;SDS011;65485;45.990;18.670;2023-06-14T15:58:54;4.30;;;1.90;;
76595;SDS011;65485;45.990;18.670;2023-06-14T16:01:56;2.10;;;1.83;;
76595;SDS011;65485;45.990;18.670;2023-06-14T16:04:59;2.10;;;1.85;;
76595;SDS011;65485;45.990;18.670;2023-06-14T16:08:02;1.92;;;1.70;;
76595;SDS011;65485;45.990;18.670;2023-06-14T16:11:05;2.17;;;1.63;;
76595;SDS011;65485;45.990;18.670;2023-06-14T16:14:07;2.10;;;1.90;;
76595;SDS011;65485;45.990;18.670;2023-06-14T16:17:10;2.63;;;2.10;;
76595;SDS011;65485;45.990;18.670;2023-06-14T16:20:13;1.90;;;1.80;;
76595;SDS011;65485;45.990;18.670;2023-06-14T16:23:16;2.58;;;2.08;;
76595;SDS011;65485;45.990;18.670;2023-06-14T16:26:18;2.03;;;1.83;;
76595;SDS011;65485;45.990;18.670;2023-06-14T16:29:21;2.28;;;1.95;;
76595;SDS011;65485;45.990;18.670;2023-06-14T16:32:24;2.53;;;2.17;;
76595;SDS011;65485;45.990;18.670;2023-06-14T16:35:26;2.10;;;2.00;;
76595;SDS011;65485;45.990;18.670;2023-06-14T16:38:29;2.92;;;1.95;;
76595;SDS011;65485;45.990;18.670;2023-06-14T16:41:32;2.77;;;1.83;;
76595;SDS011;65485;45.990;18.670;2023-06-14T16:44:34;2.45;;;1.50;;
76595;SDS011;65485;45.990;18.670;2023-06-14T16:47:37;2.60;;;1.85;;
76595;SDS011;65485;45.990;18.670;2023-06-14T16:50:40;1.92;;;1.83;;
76595;SDS011;65485;45.990;18.670;2023-06-14T16:53:42;1.87;;;1.60;;
76595;SDS011;65485;45.990;18.670;2023-06-14T16:56:45;2.10;;;1.90;;
76595;SDS011;65485;45.990;18.670;2023-06-14T16:59:48;2.03;;;1.70;;
76595;SDS011;65485;45.990;18.670;2023-06-14T17:02:50;3.17;;;1.98;;
76595;SDS011;65485;45.990;18.670;2023-06-14T17:05:56;2.17;;;1.83;;
76595;SDS011;65485;45.990;18.670;2023-06-14T17:08:59;2.23;;;1.97;;
76595;SDS011;65485;45.990;18.670;2023-06-14T17:12:02;2.77;;;2.47;;
76595;SDS011;65485;45.990;18.670;2023-06-14T17:15:05;4.53;;;2.28;;
76595;SDS011;65485;45.990;18.670;2023-06-14T17:18:08;2.95;;;2.17;;
76595;SDS011;65485;45.990;18.670;2023-06-14T17:21:12;2.38;;;2.05;;
76595;SDS011;65485;45.990;18.670;2023-06-14T17:24:16;4.93;;;2.27;;
